Main page
METAR-TAF:

METAR-TAF

Airports :

Gloucestershire Airport

Gloucester, England

latitude: 51-54N, longitude: 002-10W, elevation: 29 m

Current weather observation

The report was made 3 hours and 7 minutes ago, at 18:20 UTC
Wind 2 kt from the South/Southeast
Temperature 21°C
Humidity 49%
Pressure 1018 hPa
Visibility 10 km or more
no clouds below 1500 m and no cumulonimbus

METAR: EGBJ 201820Z 16002KT CAVOK 21/10 Q1018

Time: 22:27 (21:27 UTC)

Forecast

The report was made 7 hours and 24 minutes ago, at 14:03 UTC
Forecast valid from 20 at 15 UTC to 20 at 19 UTC
Wind 5 kt from variable directions
Visibility 10 km or more
Few clouds at a height of 3000 ft

TAF: EGBJ 201403Z 2015/2019 VRB05KT 9999 FEW030

Weather observations and forecasts of more than 4000 airports (METAR and TAF reports).

The available stations are represented by yellow and red dots on the map.

Hover mouse over dot to see the name of the station.

Then click to see weather observations and forecasts.

To change the map : click on the green buttons with a black cross to zoom in, on the green button with a dash to zoom out, or on the green arrows for adjacent maps.


METAR-TAF: